sensor_id;sensor_type;location;lat;lon;timestamp;pressure;altitude;pressure_sealevel;temperature;humidity
44926;BME280;30662;51.210;7.656;2022-09-09T00:02:27;95669.09;;;14.65;100.00
44926;BME280;30662;51.210;7.656;2022-09-09T00:05:04;95672.03;;;14.58;100.00
44926;BME280;30662;51.210;7.656;2022-09-09T00:07:52;95673.09;;;14.57;100.00
44926;BME280;30662;51.210;7.656;2022-09-09T00:10:38;95664.06;;;14.64;100.00
44926;BME280;30662;51.210;7.656;2022-09-09T00:15:49;95664.09;;;14.48;100.00
44926;BME280;30662;51.210;7.656;2022-09-09T00:18:44;95658.00;;;14.53;100.00
44926;BME280;30662;51.210;7.656;2022-09-09T00:21:14;95667.00;;;14.57;100.00
44926;BME280;30662;51.210;7.656;2022-09-09T00:23:50;95671.78;;;14.50;100.00
44926;BME280;30662;51.210;7.656;2022-09-09T00:26:38;95662.19;;;14.64;100.00
44926;BME280;30662;51.210;7.656;2022-09-09T00:29:17;95666.22;;;14.46;100.00
44926;BME280;30662;51.210;7.656;2022-09-09T00:31:48;95679.72;;;14.45;100.00
44926;BME280;30662;51.210;7.656;2022-09-09T00:34:18;95667.81;;;14.32;100.00
44926;BME280;30662;51.210;7.656;2022-09-09T00:36:48;95665.69;;;14.39;100.00
44926;BME280;30662;51.210;7.656;2022-09-09T00:39:37;95669.91;;;14.40;100.00
44926;BME280;30662;51.210;7.656;2022-09-09T00:42:23;95661.44;;;14.33;100.00
44926;BME280;30662;51.210;7.656;2022-09-09T00:44:55;95663.81;;;14.40;100.00
44926;BME280;30662;51.210;7.656;2022-09-09T00:47:45;95661.41;;;14.58;100.00
44926;BME280;30662;51.210;7.656;2022-09-09T00:55:52;95651.97;;;14.27;100.00
44926;BME280;30662;51.210;7.656;2022-09-09T00:58:19;95652.75;;;14.27;100.00
44926;BME280;30662;51.210;7.656;2022-09-09T01:00:57;95657.25;;;14.27;100.00
44926;BME280;30662;51.210;7.656;2022-09-09T01:03:37;95651.13;;;14.31;100.00
44926;BME280;30662;51.210;7.656;2022-09-09T01:06:16;95657.22;;;14.32;100.00
44926;BME280;30662;51.210;7.656;2022-09-09T01:11:52;95655.66;;;14.26;100.00
44926;BME280;30662;51.210;7.656;2022-09-09T01:22:26;95661.00;;;14.00;100.00
44926;BME280;30662;51.210;7.656;2022-09-09T01:25:22;95660.50;;;13.93;100.00
44926;BME280;30662;51.210;7.656;2022-09-09T01:27:54;95656.50;;;14.01;100.00
44926;BME280;30662;51.210;7.656;2022-09-09T01:30:21;95660.72;;;14.07;100.00
44926;BME280;30662;51.210;7.656;2022-09-09T01:32:54;95653.84;;;13.96;100.00
44926;BME280;30662;51.210;7.656;2022-09-09T01:35:41;95654.66;;;13.81;100.00
44926;BME280;30662;51.210;7.656;2022-09-09T01:38:08;95653.88;;;13.80;100.00
44926;BME280;30662;51.210;7.656;2022-09-09T01:40:34;95647.25;;;13.83;100.00
44926;BME280;30662;51.210;7.656;2022-09-09T01:43:01;95647.75;;;13.95;100.00
44926;BME280;30662;51.210;7.656;2022-09-09T01:45:27;95657.06;;;13.93;100.00
44926;BME280;30662;51.210;7.656;2022-09-09T01:47:53;95657.84;;;13.93;100.00
44926;BME280;30662;51.210;7.656;2022-09-09T01:50:20;95649.34;;;13.96;100.00
44926;BME280;30662;51.210;7.656;2022-09-09T01:52:50;95651.47;;;13.99;100.00
44926;BME280;30662;51.210;7.656;2022-09-09T01:55:19;95643.00;;;13.97;100.00
44926;BME280;30662;51.210;7.656;2022-09-09T02:00:24;95649.59;;;14.05;100.00
44926;BME280;30662;51.210;7.656;2022-09-09T02:03:03;95643.53;;;13.99;100.00
44926;BME280;30662;51.210;7.656;2022-09-09T02:05:37;95645.91;;;14.06;100.00
44926;BME280;30662;51.210;7.656;2022-09-09T02:08:22;95641.69;;;14.00;100.00
44926;BME280;30662;51.210;7.656;2022-09-09T02:10:55;95639.81;;;13.90;100.00
44926;BME280;30662;51.210;7.656;2022-09-09T02:13:23;95640.38;;;13.82;100.00
44926;BME280;30662;51.210;7.656;2022-09-09T02:15:56;95644.34;;;13.85;100.00
44926;BME280;30662;51.210;7.656;2022-09-09T02:18:28;95642.19;;;13.97;100.00
44926;BME280;30662;51.210;7.656;2022-09-09T02:20:56;95650.69;;;13.89;100.00
44926;BME280;30662;51.210;7.656;2022-09-09T02:23:24;95650.13;;;13.97;100.00
44926;BME280;30662;51.210;7.656;2022-09-09T02:25:51;95648.84;;;13.94;100.00
44926;BME280;30662;51.210;7.656;2022-09-09T02:28:20;95646.22;;;13.79;100.00
44926;BME280;30662;51.210;7.656;2022-09-09T02:30:50;95650.69;;;13.68;100.00
44926;BME280;30662;51.210;7.656;2022-09-09T02:33:26;95644.63;;;13.63;100.00
44926;BME280;30662;51.210;7.656;2022-09-09T02:35:54;95645.16;;;13.60;100.00
44926;BME280;30662;51.210;7.656;2022-09-09T02:38:34;95644.06;;;13.76;100.00
44926;BME280;30662;51.210;7.656;2022-09-09T02:41:01;95645.94;;;13.75;100.00
44926;BME280;30662;51.210;7.656;2022-09-09T02:43:34;95641.97;;;13.73;100.00
44926;BME280;30662;51.210;7.656;2022-09-09T02:48:52;95649.66;;;13.59;100.00
44926;BME280;30662;51.210;7.656;2022-09-09T02:51:27;95640.38;;;13.51;100.00
44926;BME280;30662;51.210;7.656;2022-09-09T02:54:09;95641.97;;;13.73;100.00
44926;BME280;30662;51.210;7.656;2022-09-09T02:56:40;95641.69;;;13.74;100.00
44926;BME280;30662;51.210;7.656;2022-09-09T02:59:07;95655.75;;;13.70;100.00
44926;BME280;30662;51.210;7.656;2022-09-09T03:01:33;95643.56;;;13.79;100.00
44926;BME280;30662;51.210;7.656;2022-09-09T03:04:02;95643.56;;;13.74;100.00
44926;BME280;30662;51.210;7.656;2022-09-09T03:06:30;95649.38;;;13.61;100.00
44926;BME280;30662;51.210;7.656;2022-09-09T03:08:56;95653.34;;;13.68;100.00
44926;BME280;30662;51.210;7.656;2022-09-09T03:11:24;95654.41;;;13.72;100.00
44926;BME280;30662;51.210;7.656;2022-09-09T03:13:50;95660.78;;;13.56;100.00
44926;BME280;30662;51.210;7.656;2022-09-09T03:16:16;95657.84;;;13.58;100.00
44926;BME280;30662;51.210;7.656;2022-09-09T03:18:42;95660.25;;;13.64;100.00
44926;BME280;30662;51.210;7.656;2022-09-09T03:21:08;95657.31;;;13.76;100.00
44926;BME280;30662;51.210;7.656;2022-09-09T03:23:33;95652.81;;;13.66;100.00
44926;BME280;30662;51.210;7.656;2022-09-09T03:25:59;95651.53;;;13.69;100.00
44926;BME280;30662;51.210;7.656;2022-09-09T03:28:25;95647.78;;;13.80;100.00
44926;BME280;30662;51.210;7.656;2022-09-09T03:31:05;95643.56;;;13.69;100.00
44926;BME280;30662;51.210;7.656;2022-09-09T03:33:31;95653.34;;;13.78;100.00
44926;BME280;30662;51.210;7.656;2022-09-09T03:35:57;95647.00;;;13.74;100.00
44926;BME280;30662;51.210;7.656;2022-09-09T03:38:24;95649.38;;;13.71;100.00
44926;BME280;30662;51.210;7.656;2022-09-09T03:40:54;95643.56;;;13.84;100.00
44926;BME280;30662;51.210;7.656;2022-09-09T03:43:24;95641.97;;;13.73;100.00
44926;BME280;30662;51.210;7.656;2022-09-09T03:45:50;95643.28;;;13.86;100.00
44926;BME280;30662;51.210;7.656;2022-09-09T03:48:18;95643.28;;;13.80;100.00
44926;BME280;30662;51.210;7.656;2022-09-09T03:50:49;95652.81;;;13.61;100.00
44926;BME280;30662;51.210;7.656;2022-09-09T03:53:17;95640.66;;;13.60;100.00
44926;BME280;30662;51.210;7.656;2022-09-09T03:55:47;95645.69;;;13.62;100.00
44926;BME280;30662;51.210;7.656;2022-09-09T03:58:14;95648.31;;;13.67;100.00
44926;BME280;30662;51.210;7.656;2022-09-09T04:00:40;95643.56;;;13.74;100.00
44926;BME280;30662;51.210;7.656;2022-09-09T04:03:09;95641.44;;;13.71;100.00
44926;BME280;30662;51.210;7.656;2022-09-09T04:05:35;95641.19;;;13.57;100.00
44926;BME280;30662;51.210;7.656;2022-09-09T04:08:08;95646.47;;;13.67;100.00
44926;BME280;30662;51.210;7.656;2022-09-09T04:10:34;95649.13;;;13.62;100.00
44926;BME280;30662;51.210;7.656;2022-09-09T04:13:04;95645.16;;;13.60;100.00
44926;BME280;30662;51.210;7.656;2022-09-09T04:15:30;95634.81;;;13.68;100.00
44926;BME280;30662;51.210;7.656;2022-09-09T04:17:56;95651.75;;;13.67;100.00
44926;BME280;30662;51.210;7.656;2022-09-09T04:20:22;95647.00;;;13.79;100.00
44926;BME280;30662;51.210;7.656;2022-09-09T04:22:51;95646.22;;;13.79;100.00
44926;BME280;30662;51.210;7.656;2022-09-09T04:25:17;95647.00;;;13.79;100.00
44926;BME280;30662;51.210;7.656;2022-09-09T04:27:42;95652.03;;;13.81;100.00
44926;BME280;30662;51.210;7.656;2022-09-09T04:30:09;95648.84;;;13.84;100.00
44926;BME280;30662;51.210;7.656;2022-09-09T04:32:35;95641.69;;;13.90;100.00
44926;BME280;30662;51.210;7.656;2022-09-09T04:35:02;95651.50;;;13.74;100.00
44926;BME280;30662;51.210;7.656;2022-09-09T04:37:28;95651.75;;;13.67;100.00
44926;BME280;30662;51.210;7.656;2022-09-09T04:39:54;95646.47;;;13.67;100.00
44926;BME280;30662;51.210;7.656;2022-09-09T04:42:20;95649.13;;;13.72;100.00
44926;BME280;30662;51.210;7.656;2022-09-09T04:44:46;95650.69;;;13.73;100.00
44926;BME280;30662;51.210;7.656;2022-09-09T04:47:12;95642.75;;;13.78;100.00
44926;BME280;30662;51.210;7.656;2022-09-09T04:49:38;95641.69;;;13.54;100.00
44926;BME280;30662;51.210;7.656;2022-09-09T04:52:04;95637.75;;;13.51;100.00
44926;BME280;30662;51.210;7.656;2022-09-09T04:54:30;95643.56;;;13.69;100.00
44926;BME280;30662;51.210;7.656;2022-09-09T04:56:56;95638.81;;;13.71;100.00
44926;BME280;30662;51.210;7.656;2022-09-09T04:59:22;95649.13;;;13.72;100.00
44926;BME280;30662;51.210;7.656;2022-09-09T05:01:48;95646.75;;;13.71;100.00
44926;BME280;30662;51.210;7.656;2022-09-09T05:04:16;95643.03;;;13.51;100.00
44926;BME280;30662;51.210;7.656;2022-09-09T05:06:41;95640.91;;;13.53;100.00
44926;BME280;30662;51.210;7.656;2022-09-09T05:09:08;95636.16;;;13.45;100.00
44926;BME280;30662;51.210;7.656;2022-09-09T05:11:34;95641.44;;;13.61;100.00
44926;BME280;30662;51.210;7.656;2022-09-09T05:14:04;95649.09;;;13.47;100.00
44926;BME280;30662;51.210;7.656;2022-09-09T05:16:30;95645.69;;;13.57;100.00
44926;BME280;30662;51.210;7.656;2022-09-09T05:18:56;95646.22;;;13.69;100.00
44926;BME280;30662;51.210;7.656;2022-09-09T05:21:24;95644.88;;;13.66;100.00
44926;BME280;30662;51.210;7.656;2022-09-09T05:23:52;95651.25;;;13.55;100.00
44926;BME280;30662;51.210;7.656;2022-09-09T05:26:20;95646.75;;;13.66;100.00
44926;BME280;30662;51.210;7.656;2022-09-09T05:28:46;95650.72;;;13.63;100.00
44926;BME280;30662;51.210;7.656;2022-09-09T05:31:14;95653.09;;;13.60;100.00
44926;BME280;30662;51.210;7.656;2022-09-09T05:33:41;95653.38;;;13.63;100.00
44926;BME280;30662;51.210;7.656;2022-09-09T05:36:13;95659.16;;;13.75;100.00
44926;BME280;30662;51.210;7.656;2022-09-09T05:38:40;95665.28;;;13.71;100.00
44926;BME280;30662;51.210;7.656;2022-09-09T05:41:07;95661.81;;;13.80;100.00
44926;BME280;30662;51.210;7.656;2022-09-09T05:43:33;95663.66;;;13.75;100.00
44926;BME280;30662;51.210;7.656;2022-09-09T05:46:08;95664.19;;;13.67;100.00
44926;BME280;30662;51.210;7.656;2022-09-09T05:48:37;95663.94;;;13.63;100.00
44926;BME280;30662;51.210;7.656;2022-09-09T05:51:05;95657.06;;;13.62;100.00
44926;BME280;30662;51.210;7.656;2022-09-09T05:53:32;95666.84;;;13.67;100.00
44926;BME280;30662;51.210;7.656;2022-09-09T05:58:33;95671.63;;;13.49;100.00
44926;BME280;30662;51.210;7.656;2022-09-09T06:01:04;95680.09;;;13.57;100.00
44926;BME280;30662;51.210;7.656;2022-09-09T06:03:36;95675.06;;;13.60;100.00
44926;BME280;30662;51.210;7.656;2022-09-09T06:06:05;95677.69;;;13.45;100.00
44926;BME280;30662;51.210;7.656;2022-09-09T06:08:32;95676.91;;;13.49;100.00
44926;BME280;30662;51.210;7.656;2022-09-09T06:11:05;95679.31;;;13.56;100.00
44926;BME280;30662;51.210;7.656;2022-09-09T06:13:32;95676.38;;;13.58;100.00
44926;BME280;30662;51.210;7.656;2022-09-09T06:15:58;95680.34;;;13.60;100.00
44926;BME280;30662;51.210;7.656;2022-09-09T06:18:25;95679.84;;;13.63;100.00
44926;BME280;30662;51.210;7.656;2022-09-09T06:20:58;95681.16;;;13.56;100.00
44926;BME280;30662;51.210;7.656;2022-09-09T06:23:25;95689.09;;;13.56;100.00
44926;BME280;30662;51.210;7.656;2022-09-09T06:25:51;95685.13;;;13.78;100.00
44926;BME280;30662;51.210;7.656;2022-09-09T06:28:18;95681.16;;;13.86;100.00
44926;BME280;30662;51.210;7.656;2022-09-09T06:30:44;95682.75;;;13.77;100.00
44926;BME280;30662;51.210;7.656;2022-09-09T06:33:10;95683.00;;;13.91;100.00
44926;BME280;30662;51.210;7.656;2022-09-09T06:35:36;95679.25;;;14.12;100.00
44926;BME280;30662;51.210;7.656;2022-09-09T06:38:02;95681.69;;;13.98;100.00
44926;BME280;30662;51.210;7.656;2022-09-09T06:40:29;95692.25;;;14.03;100.00
44926;BME280;30662;51.210;7.656;2022-09-09T06:42:59;95686.94;;;14.08;100.00
44926;BME280;30662;51.210;7.656;2022-09-09T06:45:25;95685.63;;;14.01;100.00
44926;BME280;30662;51.210;7.656;2022-09-09T06:47:51;95685.66;;;13.86;100.00
44926;BME280;30662;51.210;7.656;2022-09-09T06:50:19;95684.84;;;14.00;100.00
44926;BME280;30662;51.210;7.656;2022-09-09T06:52:46;95688.56;;;13.74;100.00
44926;BME280;30662;51.210;7.656;2022-09-09T06:55:13;95679.81;;;13.73;100.00
44926;BME280;30662;51.210;7.656;2022-09-09T06:57:41;95679.53;;;13.90;100.00
44926;BME280;30662;51.210;7.656;2022-09-09T07:00:07;95679.00;;;13.83;100.00
44926;BME280;30662;51.210;7.656;2022-09-09T07:02:33;95680.88;;;13.88;100.00
44926;BME280;30662;51.210;7.656;2022-09-09T07:05:04;95672.38;;;14.16;100.00
44926;BME280;30662;51.210;7.656;2022-09-09T07:07:30;95670.03;;;13.99;100.00
44926;BME280;30662;51.210;7.656;2022-09-09T07:09:56;95679.56;;;14.05;100.00
44926;BME280;30662;51.210;7.656;2022-09-09T07:12:22;95675.28;;;14.20;100.00
44926;BME280;30662;51.210;7.656;2022-09-09T07:14:47;95679.22;;;14.32;100.00
44926;BME280;30662;51.210;7.656;2022-09-09T07:17:13;95682.44;;;14.14;100.00
44926;BME280;30662;51.210;7.656;2022-09-09T07:19:39;95681.91;;;14.27;100.00
44926;BME280;30662;51.210;7.656;2022-09-09T07:22:05;95690.88;;;14.42;100.00
44926;BME280;30662;51.210;7.656;2022-09-09T07:24:31;95696.69;;;14.39;100.00
44926;BME280;30662;51.210;7.656;2022-09-09T07:26:57;95684.00;;;14.35;100.00
44926;BME280;30662;51.210;7.656;2022-09-09T07:29:25;95684.03;;;14.20;100.00
44926;BME280;30662;51.210;7.656;2022-09-09T07:31:50;95680.03;;;14.28;100.00
44926;BME280;30662;51.210;7.656;2022-09-09T07:34:17;95685.56;;;14.37;100.00
44926;BME280;30662;51.210;7.656;2022-09-09T07:36:43;95685.03;;;14.50;100.00
44926;BME280;30662;51.210;7.656;2022-09-09T07:39:11;95690.84;;;14.52;100.00
44926;BME280;30662;51.210;7.656;2022-09-09T07:41:45;95687.44;;;14.31;100.00
44926;BME280;30662;51.210;7.656;2022-09-09T07:44:16;95702.81;;;14.34;100.00
44926;BME280;30662;51.210;7.656;2022-09-09T07:46:43;95691.16;;;14.30;100.00
44926;BME280;30662;51.210;7.656;2022-09-09T07:49:11;95705.72;;;14.38;100.00
44926;BME280;30662;51.210;7.656;2022-09-09T07:51:38;95700.13;;;14.44;100.00
44926;BME280;30662;51.210;7.656;2022-09-09T07:54:11;95695.09;;;14.48;100.00
44926;BME280;30662;51.210;7.656;2022-09-09T07:56:38;95703.06;;;14.43;100.00
44926;BME280;30662;51.210;7.656;2022-09-09T07:59:06;95699.59;;;14.52;100.00
44926;BME280;30662;51.210;7.656;2022-09-09T08:01:38;95695.03;;;14.68;100.00
44926;BME280;30662;51.210;7.656;2022-09-09T08:04:07;95699.53;;;14.78;100.00
44926;BME280;30662;51.210;7.656;2022-09-09T08:06:39;95707.00;;;14.66;100.00
44926;BME280;30662;51.210;7.656;2022-09-09T08:09:07;95704.06;;;14.62;100.00
44926;BME280;30662;51.210;7.656;2022-09-09T08:11:33;95705.13;;;14.61;100.00
44926;BME280;30662;51.210;7.656;2022-09-09T08:14:05;95709.88;;;14.69;100.00
44926;BME280;30662;51.210;7.656;2022-09-09T08:16:33;95705.06;;;14.86;100.00
44926;BME280;30662;51.210;7.656;2022-09-09T08:19:02;95713.72;;;15.07;100.00
44926;BME280;30662;51.210;7.656;2022-09-09T08:21:30;95717.09;;;15.18;100.00
44926;BME280;30662;51.210;7.656;2022-09-09T08:23:59;95712.00;;;15.27;100.00
44926;BME280;30662;51.210;7.656;2022-09-09T08:26:28;95698.22;;;15.30;100.00
44926;BME280;30662;51.210;7.656;2022-09-09T08:28:56;95711.78;;;15.23;100.00
44926;BME280;30662;51.210;7.656;2022-09-09T08:31:27;95699.19;;;15.44;100.00
44926;BME280;30662;51.210;7.656;2022-09-09T08:33:55;95712.47;;;15.44;100.00
44926;BME280;30662;51.210;7.656;2022-09-09T08:36:23;95731.78;;;15.50;100.00
44926;BME280;30662;51.210;7.656;2022-09-09T08:38:52;95702.81;;;15.58;100.00
44926;BME280;30662;51.210;7.656;2022-09-09T08:43:50;95722.28;;;15.88;100.00
44926;BME280;30662;51.210;7.656;2022-09-09T08:47:05;95721.31;;;15.74;100.00
44926;BME280;30662;51.210;7.656;2022-09-09T08:50:22;95726.34;;;15.75;100.00
44926;BME280;30662;51.210;7.656;2022-09-09T08:52:37;95721.41;;;15.53;100.00
44926;BME280;30662;51.210;7.656;2022-09-09T08:57:36;95719.66;;;15.38;100.00
44926;BME280;30662;51.210;7.656;2022-09-09T09:00:02;95728.75;;;15.71;100.00
44926;BME280;30662;51.210;7.656;2022-09-09T09:02:49;95734.28;;;15.80;100.00
44926;BME280;30662;51.210;7.656;2022-09-09T09:05:32;95719.97;;;16.10;100.00
44926;BME280;30662;51.210;7.656;2022-09-09T09:10:46;95720.09;;;16.24;99.76
44926;BME280;30662;51.210;7.656;2022-09-09T09:15:57;95725.56;;;15.75;100.00
44926;BME280;30662;51.210;7.656;2022-09-09T09:18:24;95744.53;;;15.48;100.00
44926;BME280;30662;51.210;7.656;2022-09-09T09:21:44;95733.38;;;15.51;100.00
44926;BME280;30662;51.210;7.656;2022-09-09T09:24:27;95737.84;;;15.60;100.00
44926;BME280;30662;51.210;7.656;2022-09-09T09:27:07;95741.69;;;15.39;100.00
44926;BME280;30662;51.210;7.656;2022-09-09T09:29:38;95735.75;;;15.52;100.00
44926;BME280;30662;51.210;7.656;2022-09-09T09:32:28;95739.72;;;15.55;100.00
44926;BME280;30662;51.210;7.656;2022-09-09T09:34:57;95734.69;;;15.92;100.00
44926;BME280;30662;51.210;7.656;2022-09-09T09:37:42;95732.66;;;16.13;100.00
44926;BME280;30662;51.210;7.656;2022-09-09T09:40:32;95736.69;;;16.40;100.00
44926;BME280;30662;51.210;7.656;2022-09-09T09:43:01;95735.91;;;16.39;100.00
44926;BME280;30662;51.210;7.656;2022-09-09T09:45:43;95723.03;;;16.51;100.00
44926;BME280;30662;51.210;7.656;2022-09-09T09:48:33;95739.31;;;16.74;96.47
44926;BME280;30662;51.210;7.656;2022-09-09T09:51:08;95745.19;;;16.71;96.40
44926;BME280;30662;51.210;7.656;2022-09-09T09:53:37;95738.34;;;16.89;93.55
44926;BME280;30662;51.210;7.656;2022-09-09T09:56:10;95739.78;;;17.43;94.51
44926;BME280;30662;51.210;7.656;2022-09-09T10:01:37;95749.06;;;17.45;84.35
44926;BME280;30662;51.210;7.656;2022-09-09T10:04:20;95739.28;;;17.41;84.40
44926;BME280;30662;51.210;7.656;2022-09-09T10:06:49;95738.69;;;17.25;85.43
44926;BME280;30662;51.210;7.656;2022-09-09T10:09:29;95740.47;;;16.87;83.88
44926;BME280;30662;51.210;7.656;2022-09-09T10:12:48;95730.38;;;16.89;86.10
44926;BME280;30662;51.210;7.656;2022-09-09T10:15:01;95733.13;;;16.78;86.78
44926;BME280;30662;51.210;7.656;2022-09-09T10:17:57;95739.50;;;17.44;83.46
44926;BME280;30662;51.210;7.656;2022-09-09T10:26:25;95733.34;;;18.79;73.51
44926;BME280;30662;51.210;7.656;2022-09-09T10:31:52;95730.59;;;18.98;73.10
44926;BME280;30662;51.210;7.656;2022-09-09T10:40:39;95723.44;;;19.35;68.49
44926;BME280;30662;51.210;7.656;2022-09-09T10:46:04;95719.19;;;18.65;72.20
44926;BME280;30662;51.210;7.656;2022-09-09T10:52:14;95718.91;;;17.12;81.84
44926;BME280;30662;51.210;7.656;2022-09-09T10:55:06;95738.00;;;17.57;82.25
44926;BME280;30662;51.210;7.656;2022-09-09T10:57:48;95729.88;;;17.05;85.53
44926;BME280;30662;51.210;7.656;2022-09-09T11:02:50;95725.09;;;16.84;85.80
44926;BME280;30662;51.210;7.656;2022-09-09T11:05:27;95728.13;;;17.20;83.63
44926;BME280;30662;51.210;7.656;2022-09-09T11:10:37;95723.47;;;17.06;83.27
44926;BME280;30662;51.210;7.656;2022-09-09T11:13:10;95720.19;;;17.15;82.57
44926;BME280;30662;51.210;7.656;2022-09-09T11:15:45;95724.94;;;17.18;80.88
44926;BME280;30662;51.210;7.656;2022-09-09T11:18:31;95722.63;;;17.11;81.81
44926;BME280;30662;51.210;7.656;2022-09-09T11:21:08;95717.59;;;17.09;80.24
44926;BME280;30662;51.210;7.656;2022-09-09T11:23:42;95728.66;;;17.78;75.52
44926;BME280;30662;51.210;7.656;2022-09-09T11:26:16;95715.06;;;18.72;70.43
44926;BME280;30662;51.210;7.656;2022-09-09T11:29:09;95721.31;;;19.45;66.08
44926;BME280;30662;51.210;7.656;2022-09-09T11:40:16;95729.19;;;18.73;64.25
44926;BME280;30662;51.210;7.656;2022-09-09T11:42:46;95722.47;;;17.83;70.56
44926;BME280;30662;51.210;7.656;2022-09-09T11:45:23;95724.13;;;17.60;72.83
44926;BME280;30662;51.210;7.656;2022-09-09T11:47:53;95733.03;;;17.31;74.28
44926;BME280;30662;51.210;7.656;2022-09-09T11:52:46;95728.03;;;18.00;77.64
44926;BME280;30662;51.210;7.656;2022-09-09T11:55:27;95724.50;;;19.34;71.90
44926;BME280;30662;51.210;7.656;2022-09-09T11:57:58;95722.81;;;20.41;63.99
44926;BME280;30662;51.210;7.656;2022-09-09T12:00:51;95723.34;;;19.98;63.34
44926;BME280;30662;51.210;7.656;2022-09-09T12:06:33;95716.53;;;20.15;63.18
44926;BME280;30662;51.210;7.656;2022-09-09T12:09:25;95717.84;;;20.26;61.58
44926;BME280;30662;51.210;7.656;2022-09-09T12:12:05;95727.25;;;20.15;61.43
44926;BME280;30662;51.210;7.656;2022-09-09T12:14:36;95729.91;;;20.15;60.87
44926;BME280;30662;51.210;7.656;2022-09-09T12:17:29;95739.47;;;20.07;61.22
44926;BME280;30662;51.210;7.656;2022-09-09T12:20:16;95726.88;;;20.07;61.53
44926;BME280;30662;51.210;7.656;2022-09-09T12:31:33;95716.00;;;20.35;60.67
44926;BME280;30662;51.210;7.656;2022-09-09T12:37:03;95712.25;;;19.33;64.25
44926;BME280;30662;51.210;7.656;2022-09-09T12:39:35;95713.09;;;19.06;65.91
44926;BME280;30662;51.210;7.656;2022-09-09T12:42:03;95711.88;;;19.12;65.31
44926;BME280;30662;51.210;7.656;2022-09-09T12:44:30;95710.34;;;18.83;66.20
44926;BME280;30662;51.210;7.656;2022-09-09T12:47:00;95710.47;;;18.45;72.89
44926;BME280;30662;51.210;7.656;2022-09-09T12:49:34;95704.84;;;18.33;79.11
44926;BME280;30662;51.210;7.656;2022-09-09T12:52:05;95709.91;;;18.62;79.06
44926;BME280;30662;51.210;7.656;2022-09-09T12:54:36;95705.00;;;18.69;80.64
44926;BME280;30662;51.210;7.656;2022-09-09T12:57:03;95701.88;;;19.17;79.32
44926;BME280;30662;51.210;7.656;2022-09-09T12:59:41;95699.72;;;19.55;74.79
44926;BME280;30662;51.210;7.656;2022-09-09T13:02:26;95698.72;;;20.10;69.21
44926;BME280;30662;51.210;7.656;2022-09-09T13:04:52;95686.28;;;20.68;65.63
44926;BME280;30662;51.210;7.656;2022-09-09T13:07:19;95693.56;;;21.41;63.86
44926;BME280;30662;51.210;7.656;2022-09-09T13:09:46;95701.94;;;21.40;61.40
44926;BME280;30662;51.210;7.656;2022-09-09T13:12:15;95692.56;;;21.11;63.40
44926;BME280;30662;51.210;7.656;2022-09-09T13:14:45;95688.41;;;20.88;60.14
44926;BME280;30662;51.210;7.656;2022-09-09T13:17:19;95681.84;;;20.32;59.42
44926;BME280;30662;51.210;7.656;2022-09-09T13:19:46;95674.00;;;19.82;60.86
44926;BME280;30662;51.210;7.656;2022-09-09T13:22:35;95681.91;;;19.87;60.93
44926;BME280;30662;51.210;7.656;2022-09-09T13:25:18;95681.50;;;19.71;60.46
44926;BME280;30662;51.210;7.656;2022-09-09T13:28:20;95694.50;;;19.87;59.33
44926;BME280;30662;51.210;7.656;2022-09-09T13:30:59;95673.88;;;20.09;59.36
44926;BME280;30662;51.210;7.656;2022-09-09T13:33:38;95674.19;;;20.08;59.17
44926;BME280;30662;51.210;7.656;2022-09-09T13:36:06;95673.00;;;20.23;59.32
44926;BME280;30662;51.210;7.656;2022-09-09T13:41:20;95676.94;;;19.36;59.77
44926;BME280;30662;51.210;7.656;2022-09-09T13:43:47;95675.59;;;19.47;60.37
44926;BME280;30662;51.210;7.656;2022-09-09T13:46:43;95670.25;;;19.47;61.64
44926;BME280;30662;51.210;7.656;2022-09-09T13:51:38;95687.56;;;19.63;61.89
44926;BME280;30662;51.210;7.656;2022-09-09T13:54:06;95693.50;;;19.60;62.30
44926;BME280;30662;51.210;7.656;2022-09-09T13:56:36;95685.34;;;19.29;61.59
44926;BME280;30662;51.210;7.656;2022-09-09T13:59:06;95689.03;;;19.19;60.82
44926;BME280;30662;51.210;7.656;2022-09-09T14:01:35;95689.84;;;19.20;61.95
44926;BME280;30662;51.210;7.656;2022-09-09T14:04:01;95680.31;;;19.27;61.17
44926;BME280;30662;51.210;7.656;2022-09-09T14:06:27;95671.63;;;19.22;61.09
44926;BME280;30662;51.210;7.656;2022-09-09T14:08:54;95670.44;;;19.64;61.85
44926;BME280;30662;51.210;7.656;2022-09-09T14:11:20;95666.00;;;20.35;58.21
44926;BME280;30662;51.210;7.656;2022-09-09T14:13:47;95659.63;;;20.54;58.04
44926;BME280;30662;51.210;7.656;2022-09-09T14:16:16;95660.72;;;20.22;57.57
44926;BME280;30662;51.210;7.656;2022-09-09T14:18:43;95659.81;;;19.73;59.91
44926;BME280;30662;51.210;7.656;2022-09-09T14:21:10;95666.81;;;18.83;62.03
44926;BME280;30662;51.210;7.656;2022-09-09T14:23:37;95670.53;;;18.13;64.60
44926;BME280;30662;51.210;7.656;2022-09-09T14:26:07;95668.44;;;18.10;65.50
44926;BME280;30662;51.210;7.656;2022-09-09T14:28:36;95672.56;;;18.02;66.57
44926;BME280;30662;51.210;7.656;2022-09-09T14:31:20;95689.59;;;17.87;78.62
44926;BME280;30662;51.210;7.656;2022-09-09T14:33:46;95701.00;;;17.18;86.76
44926;BME280;30662;51.210;7.656;2022-09-09T14:36:12;95702.00;;;16.50;95.83
44926;BME280;30662;51.210;7.656;2022-09-09T14:38:38;95684.38;;;16.06;100.00
44926;BME280;30662;51.210;7.656;2022-09-09T14:41:16;95684.94;;;16.03;100.00
44926;BME280;30662;51.210;7.656;2022-09-09T14:43:44;95688.41;;;16.27;100.00
44926;BME280;30662;51.210;7.656;2022-09-09T14:46:17;95689.47;;;16.79;100.00
44926;BME280;30662;51.210;7.656;2022-09-09T14:48:44;95686.38;;;16.72;100.00
44926;BME280;30662;51.210;7.656;2022-09-09T14:51:13;95684.06;;;17.08;100.00
44926;BME280;30662;51.210;7.656;2022-09-09T14:53:41;95681.03;;;17.15;100.00
44926;BME280;30662;51.210;7.656;2022-09-09T14:56:10;95677.41;;;16.87;100.00